Harwood, ND

5:16 AM CDT on July 23, 2016 (GMT -0500)
Harwood Triangle | | Change Station

Elev 879 ft 46.98 °N, 96.88 °W | Updated 12 minutes ago

Clear
Clear
74.2 °F
Feels Like 76 °F
N
2.0
Wind Variable Wind from East
Gusts 3.0 mph

Today
High -- | Low -- °F
--% Chance of Precip.
Yesterday
High -- | Low -- °F
Precip. -- in
Pressure 29.83 in
Visibility 10.0 miles
Clouds Clear
Heat Index 76 °F
Dew Point 63 °F
Humidity 67%
Rainfall 0.00 in
Snow Depth Not available.
5:56 AM 9:10 PM
Waning Gibbous, 86% visible
METAR KFAR 230953Z 12011G20KT 10SM CLR 25/16 A2985 RMK AO2 SLP102 T02500161
Pressure 29.83 in
Visibility 10.0 miles
Clouds Clear
Heat Index 76 °F
Dew Point 63 °F
Humidity 67%
Rainfall 0.00 in
Snow Depth Not available.
5:56 AM 9:10 PM
Waning Gibbous, 86% visible
METAR KFAR 230953Z 12011G20KT 10SM CLR 25/16 A2985 RMK AO2 SLP102 T02500161

10-Day Weather Forecast

Almanac

Astronomy

Jul. 23, 2016 Rise Set
Actual Time
Civil Twilight
Nautical Twilight
Astronomical Twilight
Moon
Length of Visible Light
Length of Day
Tomorrow will be .
, % of the Moon is Illuminated

Today's Extremes

State Highs State Lows

Community

WunderPhotos

Upload Photos

1,926,789 photos uploaded!

WunderBlog® & News

Nearby

Air Quality

  Air Quality AQ Index Pollutant
Not available.

Snow Depth

Station Depth Elevation

Earthquake Activity

City Distance Mag. Time & Date
Minimum magnitude displayed is 2.5.

Coastal Water Temperatures

Place Temperature

Stations

Nearby Weather Stations

Station Location Temp. Windchill Dew Point Humidity Wind Precip. Elev Updated Type
                   

Watches & Warnings

There are currently no watches in effect.